sensor_id;sensor_type;location;lat;lon;timestamp;P1;durP1;ratioP1;P2;durP2;ratioP2
9436;SDS011;4757;59.334;18.034;2023-01-20T00:01:30;3.93;;;2.50;;
9436;SDS011;4757;59.334;18.034;2023-01-20T00:03:58;3.13;;;2.20;;
9436;SDS011;4757;59.334;18.034;2023-01-20T00:06:26;6.27;;;3.93;;
9436;SDS011;4757;59.334;18.034;2023-01-20T00:08:54;3.90;;;2.20;;
9436;SDS011;4757;59.334;18.034;2023-01-20T00:11:23;11.43;;;2.43;;
9436;SDS011;4757;59.334;18.034;2023-01-20T00:13:54;19.13;;;4.50;;
9436;SDS011;4757;59.334;18.034;2023-01-20T00:16:23;8.37;;;2.97;;
9436;SDS011;4757;59.334;18.034;2023-01-20T00:18:51;9.20;;;3.13;;
9436;SDS011;4757;59.334;18.034;2023-01-20T00:21:19;4.20;;;2.03;;
9436;SDS011;4757;59.334;18.034;2023-01-20T00:23:46;6.80;;;3.30;;
9436;SDS011;4757;59.334;18.034;2023-01-20T00:26:15;6.20;;;3.03;;
9436;SDS011;4757;59.334;18.034;2023-01-20T00:28:44;7.23;;;3.23;;
9436;SDS011;4757;59.334;18.034;2023-01-20T00:33:47;8.70;;;2.97;;
9436;SDS011;4757;59.334;18.034;2023-01-20T00:36:16;7.70;;;2.73;;
9436;SDS011;4757;59.334;18.034;2023-01-20T00:38:43;4.17;;;2.53;;
9436;SDS011;4757;59.334;18.034;2023-01-20T00:41:11;7.73;;;4.03;;
9436;SDS011;4757;59.334;18.034;2023-01-20T00:43:39;10.33;;;2.67;;
9436;SDS011;4757;59.334;18.034;2023-01-20T00:46:07;3.40;;;2.13;;
9436;SDS011;4757;59.334;18.034;2023-01-20T00:48:34;3.23;;;2.30;;
9436;SDS011;4757;59.334;18.034;2023-01-20T00:51:02;7.67;;;2.47;;
9436;SDS011;4757;59.334;18.034;2023-01-20T00:53:31;2.73;;;2.00;;
9436;SDS011;4757;59.334;18.034;2023-01-20T00:56:06;2.30;;;2.10;;
9436;SDS011;4757;59.334;18.034;2023-01-20T00:58:38;4.43;;;2.37;;
9436;SDS011;4757;59.334;18.034;2023-01-20T01:01:07;5.37;;;2.70;;
9436;SDS011;4757;59.334;18.034;2023-01-20T01:03:34;7.20;;;2.07;;
9436;SDS011;4757;59.334;18.034;2023-01-20T01:06:09;4.97;;;2.30;;
9436;SDS011;4757;59.334;18.034;2023-01-20T01:08:38;2.93;;;2.10;;
9436;SDS011;4757;59.334;18.034;2023-01-20T01:11:06;24.70;;;2.60;;
9436;SDS011;4757;59.334;18.034;2023-01-20T01:13:33;6.67;;;2.27;;
9436;SDS011;4757;59.334;18.034;2023-01-20T01:16:03;5.07;;;2.30;;
9436;SDS011;4757;59.334;18.034;2023-01-20T01:18:33;2.60;;;2.23;;
9436;SDS011;4757;59.334;18.034;2023-01-20T01:21:04;4.50;;;2.17;;
9436;SDS011;4757;59.334;18.034;2023-01-20T01:23:37;3.53;;;2.33;;
9436;SDS011;4757;59.334;18.034;2023-01-20T01:26:04;5.87;;;2.63;;
9436;SDS011;4757;59.334;18.034;2023-01-20T01:28:32;5.17;;;2.20;;
9436;SDS011;4757;59.334;18.034;2023-01-20T01:31:00;6.47;;;2.47;;
9436;SDS011;4757;59.334;18.034;2023-01-20T01:33:28;6.40;;;2.10;;
9436;SDS011;4757;59.334;18.034;2023-01-20T01:35:56;7.73;;;2.53;;
9436;SDS011;4757;59.334;18.034;2023-01-20T01:38:25;3.70;;;3.30;;
9436;SDS011;4757;59.334;18.034;2023-01-20T01:40:53;4.00;;;2.00;;
9436;SDS011;4757;59.334;18.034;2023-01-20T01:43:25;5.90;;;2.23;;
9436;SDS011;4757;59.334;18.034;2023-01-20T01:45:55;3.30;;;2.27;;
9436;SDS011;4757;59.334;18.034;2023-01-20T01:48:23;6.37;;;2.40;;
9436;SDS011;4757;59.334;18.034;2023-01-20T01:50:55;2.83;;;2.53;;
9436;SDS011;4757;59.334;18.034;2023-01-20T01:53:39;2.67;;;2.20;;
9436;SDS011;4757;59.334;18.034;2023-01-20T01:56:10;3.50;;;2.50;;
9436;SDS011;4757;59.334;18.034;2023-01-20T01:58:39;7.30;;;3.03;;
9436;SDS011;4757;59.334;18.034;2023-01-20T02:01:10;4.23;;;2.63;;
9436;SDS011;4757;59.334;18.034;2023-01-20T02:03:55;19.17;;;3.50;;
9436;SDS011;4757;59.334;18.034;2023-01-20T02:06:44;8.13;;;2.27;;
9436;SDS011;4757;59.334;18.034;2023-01-20T02:09:14;5.50;;;2.67;;
9436;SDS011;4757;59.334;18.034;2023-01-20T02:11:43;3.57;;;3.10;;
9436;SDS011;4757;59.334;18.034;2023-01-20T02:14:15;2.87;;;2.23;;
9436;SDS011;4757;59.334;18.034;2023-01-20T02:25:04;5.40;;;2.67;;
9436;SDS011;4757;59.334;18.034;2023-01-20T02:33:27;5.30;;;2.27;;
9436;SDS011;4757;59.334;18.034;2023-01-20T02:36:02;4.30;;;3.30;;
9436;SDS011;4757;59.334;18.034;2023-01-20T02:38:52;5.00;;;2.50;;
9436;SDS011;4757;59.334;18.034;2023-01-20T02:41:38;3.83;;;2.33;;
9436;SDS011;4757;59.334;18.034;2023-01-20T02:44:17;4.83;;;2.50;;
9436;SDS011;4757;59.334;18.034;2023-01-20T02:47:16;5.77;;;2.77;;
9436;SDS011;4757;59.334;18.034;2023-01-20T02:49:53;7.57;;;2.90;;
9436;SDS011;4757;59.334;18.034;2023-01-20T02:52:40;3.67;;;2.20;;
9436;SDS011;4757;59.334;18.034;2023-01-20T02:55:14;4.53;;;2.80;;
9436;SDS011;4757;59.334;18.034;2023-01-20T02:57:50;4.87;;;2.80;;
9436;SDS011;4757;59.334;18.034;2023-01-20T03:00:24;5.13;;;3.00;;
9436;SDS011;4757;59.334;18.034;2023-01-20T03:03:14;2.77;;;2.20;;
9436;SDS011;4757;59.334;18.034;2023-01-20T03:05:47;5.37;;;2.13;;
9436;SDS011;4757;59.334;18.034;2023-01-20T03:08:19;3.77;;;2.70;;
9436;SDS011;4757;59.334;18.034;2023-01-20T03:10:50;3.83;;;2.33;;
9436;SDS011;4757;59.334;18.034;2023-01-20T03:13:25;2.97;;;2.20;;
9436;SDS011;4757;59.334;18.034;2023-01-20T03:16:10;141.03;;;10.23;;
9436;SDS011;4757;59.334;18.034;2023-01-20T03:18:40;2.67;;;1.90;;
9436;SDS011;4757;59.334;18.034;2023-01-20T03:21:08;3.83;;;2.10;;
9436;SDS011;4757;59.334;18.034;2023-01-20T03:23:56;14.73;;;2.70;;
9436;SDS011;4757;59.334;18.034;2023-01-20T03:26:27;5.87;;;2.60;;
9436;SDS011;4757;59.334;18.034;2023-01-20T03:28:54;3.80;;;2.23;;
9436;SDS011;4757;59.334;18.034;2023-01-20T03:31:28;5.93;;;2.90;;
9436;SDS011;4757;59.334;18.034;2023-01-20T03:34:01;5.27;;;3.63;;
9436;SDS011;4757;59.334;18.034;2023-01-20T03:36:31;2.10;;;1.60;;
9436;SDS011;4757;59.334;18.034;2023-01-20T03:38:59;2.57;;;2.00;;
9436;SDS011;4757;59.334;18.034;2023-01-20T03:49:42;4.20;;;1.90;;
9436;SDS011;4757;59.334;18.034;2023-01-20T03:52:26;3.50;;;2.90;;
9436;SDS011;4757;59.334;18.034;2023-01-20T03:55:15;3.23;;;1.77;;
9436;SDS011;4757;59.334;18.034;2023-01-20T03:57:47;2.57;;;1.73;;
9436;SDS011;4757;59.334;18.034;2023-01-20T04:00:20;3.37;;;2.47;;
9436;SDS011;4757;59.334;18.034;2023-01-20T04:02:51;2.07;;;1.83;;
9436;SDS011;4757;59.334;18.034;2023-01-20T04:05:20;4.17;;;2.30;;
9436;SDS011;4757;59.334;18.034;2023-01-20T04:07:47;2.90;;;2.07;;
9436;SDS011;4757;59.334;18.034;2023-01-20T04:10:17;3.97;;;2.63;;
9436;SDS011;4757;59.334;18.034;2023-01-20T04:12:44;4.60;;;2.40;;
9436;SDS011;4757;59.334;18.034;2023-01-20T04:15:11;11.63;;;3.10;;
9436;SDS011;4757;59.334;18.034;2023-01-20T04:17:39;5.60;;;2.80;;
9436;SDS011;4757;59.334;18.034;2023-01-20T04:20:07;3.03;;;2.03;;
9436;SDS011;4757;59.334;18.034;2023-01-20T04:22:49;3.93;;;1.93;;
9436;SDS011;4757;59.334;18.034;2023-01-20T04:25:24;4.90;;;2.73;;
9436;SDS011;4757;59.334;18.034;2023-01-20T04:27:56;4.80;;;2.17;;
9436;SDS011;4757;59.334;18.034;2023-01-20T04:30:23;5.90;;;2.80;;
9436;SDS011;4757;59.334;18.034;2023-01-20T04:32:50;2.73;;;2.00;;
9436;SDS011;4757;59.334;18.034;2023-01-20T04:35:20;4.50;;;1.87;;
9436;SDS011;4757;59.334;18.034;2023-01-20T04:37:47;5.83;;;2.10;;
9436;SDS011;4757;59.334;18.034;2023-01-20T04:40:14;4.30;;;2.37;;
9436;SDS011;4757;59.334;18.034;2023-01-20T04:42:41;3.73;;;2.03;;
9436;SDS011;4757;59.334;18.034;2023-01-20T04:45:08;3.60;;;1.70;;
9436;SDS011;4757;59.334;18.034;2023-01-20T04:47:42;4.77;;;2.00;;
9436;SDS011;4757;59.334;18.034;2023-01-20T04:50:09;4.33;;;2.13;;
9436;SDS011;4757;59.334;18.034;2023-01-20T04:52:38;8.30;;;2.23;;
9436;SDS011;4757;59.334;18.034;2023-01-20T04:55:05;4.07;;;2.17;;
9436;SDS011;4757;59.334;18.034;2023-01-20T04:57:32;4.70;;;2.33;;
9436;SDS011;4757;59.334;18.034;2023-01-20T04:59:59;3.80;;;2.37;;
9436;SDS011;4757;59.334;18.034;2023-01-20T05:02:27;4.73;;;2.10;;
9436;SDS011;4757;59.334;18.034;2023-01-20T05:04:54;8.07;;;2.93;;
9436;SDS011;4757;59.334;18.034;2023-01-20T05:07:21;3.30;;;1.97;;
9436;SDS011;4757;59.334;18.034;2023-01-20T05:09:48;3.13;;;1.83;;
9436;SDS011;4757;59.334;18.034;2023-01-20T05:12:16;2.40;;;1.77;;
9436;SDS011;4757;59.334;18.034;2023-01-20T05:14:43;3.73;;;1.73;;
9436;SDS011;4757;59.334;18.034;2023-01-20T05:17:10;3.20;;;1.70;;
9436;SDS011;4757;59.334;18.034;2023-01-20T05:19:37;6.27;;;1.70;;
9436;SDS011;4757;59.334;18.034;2023-01-20T05:22:04;2.83;;;1.40;;
9436;SDS011;4757;59.334;18.034;2023-01-20T05:24:31;7.90;;;1.90;;
9436;SDS011;4757;59.334;18.034;2023-01-20T05:26:59;2.43;;;1.63;;
9436;SDS011;4757;59.334;18.034;2023-01-20T05:29:27;44.13;;;3.03;;
9436;SDS011;4757;59.334;18.034;2023-01-20T05:31:54;2.83;;;1.97;;
9436;SDS011;4757;59.334;18.034;2023-01-20T05:34:21;2.20;;;1.77;;
9436;SDS011;4757;59.334;18.034;2023-01-20T05:36:52;3.63;;;2.00;;
9436;SDS011;4757;59.334;18.034;2023-01-20T05:39:20;4.97;;;1.90;;
9436;SDS011;4757;59.334;18.034;2023-01-20T05:41:47;1.87;;;1.63;;
9436;SDS011;4757;59.334;18.034;2023-01-20T05:44:15;4.70;;;2.50;;
9436;SDS011;4757;59.334;18.034;2023-01-20T05:46:42;9.07;;;4.57;;
9436;SDS011;4757;59.334;18.034;2023-01-20T05:49:10;4.13;;;2.00;;
9436;SDS011;4757;59.334;18.034;2023-01-20T05:51:40;5.33;;;2.03;;
9436;SDS011;4757;59.334;18.034;2023-01-20T05:54:07;3.93;;;1.80;;
9436;SDS011;4757;59.334;18.034;2023-01-20T05:56:35;3.67;;;1.80;;
9436;SDS011;4757;59.334;18.034;2023-01-20T05:59:02;2.07;;;1.83;;
9436;SDS011;4757;59.334;18.034;2023-01-20T06:01:30;2.77;;;2.20;;
9436;SDS011;4757;59.334;18.034;2023-01-20T06:03:57;2.43;;;1.93;;
9436;SDS011;4757;59.334;18.034;2023-01-20T06:06:24;4.97;;;2.20;;
9436;SDS011;4757;59.334;18.034;2023-01-20T06:08:52;4.83;;;2.50;;
9436;SDS011;4757;59.334;18.034;2023-01-20T06:11:19;5.17;;;2.90;;
9436;SDS011;4757;59.334;18.034;2023-01-20T06:13:46;9.17;;;2.30;;
9436;SDS011;4757;59.334;18.034;2023-01-20T06:16:15;3.20;;;2.10;;
9436;SDS011;4757;59.334;18.034;2023-01-20T06:18:43;4.30;;;2.63;;
9436;SDS011;4757;59.334;18.034;2023-01-20T06:21:10;2.73;;;2.43;;
9436;SDS011;4757;59.334;18.034;2023-01-20T06:23:38;6.30;;;2.67;;
9436;SDS011;4757;59.334;18.034;2023-01-20T06:26:10;4.27;;;2.73;;
9436;SDS011;4757;59.334;18.034;2023-01-20T06:28:38;3.47;;;2.50;;
9436;SDS011;4757;59.334;18.034;2023-01-20T06:31:07;3.03;;;2.10;;
9436;SDS011;4757;59.334;18.034;2023-01-20T06:33:35;6.13;;;3.30;;
9436;SDS011;4757;59.334;18.034;2023-01-20T06:36:03;7.37;;;2.57;;
9436;SDS011;4757;59.334;18.034;2023-01-20T06:38:32;3.00;;;2.20;;
9436;SDS011;4757;59.334;18.034;2023-01-20T06:41:04;6.37;;;3.33;;
9436;SDS011;4757;59.334;18.034;2023-01-20T06:43:33;3.23;;;2.20;;
9436;SDS011;4757;59.334;18.034;2023-01-20T06:46:04;4.90;;;2.07;;
9436;SDS011;4757;59.334;18.034;2023-01-20T06:48:32;2.60;;;2.07;;
9436;SDS011;4757;59.334;18.034;2023-01-20T06:51:03;8.23;;;2.20;;
9436;SDS011;4757;59.334;18.034;2023-01-20T06:53:41;8.37;;;2.37;;
9436;SDS011;4757;59.334;18.034;2023-01-20T06:56:12;6.57;;;2.00;;
9436;SDS011;4757;59.334;18.034;2023-01-20T06:58:40;28.37;;;4.13;;
9436;SDS011;4757;59.334;18.034;2023-01-20T07:01:12;6.80;;;2.60;;
9436;SDS011;4757;59.334;18.034;2023-01-20T07:03:58;3.80;;;2.50;;
9436;SDS011;4757;59.334;18.034;2023-01-20T07:06:32;9.70;;;2.37;;
9436;SDS011;4757;59.334;18.034;2023-01-20T07:09:01;4.80;;;2.70;;
9436;SDS011;4757;59.334;18.034;2023-01-20T07:11:28;7.63;;;2.70;;
9436;SDS011;4757;59.334;18.034;2023-01-20T07:13:56;7.07;;;2.87;;
9436;SDS011;4757;59.334;18.034;2023-01-20T07:16:24;5.33;;;2.73;;
9436;SDS011;4757;59.334;18.034;2023-01-20T07:18:51;8.63;;;4.63;;
9436;SDS011;4757;59.334;18.034;2023-01-20T07:21:19;6.70;;;3.30;;
9436;SDS011;4757;59.334;18.034;2023-01-20T07:23:49;9.43;;;3.23;;
9436;SDS011;4757;59.334;18.034;2023-01-20T07:26:20;7.57;;;3.30;;
9436;SDS011;4757;59.334;18.034;2023-01-20T07:28:48;5.20;;;2.97;;
9436;SDS011;4757;59.334;18.034;2023-01-20T07:31:17;12.27;;;3.20;;
9436;SDS011;4757;59.334;18.034;2023-01-20T07:33:49;7.17;;;4.30;;
9436;SDS011;4757;59.334;18.034;2023-01-20T07:36:17;6.23;;;2.63;;
9436;SDS011;4757;59.334;18.034;2023-01-20T07:38:48;7.83;;;3.70;;
9436;SDS011;4757;59.334;18.034;2023-01-20T07:41:16;11.10;;;2.63;;
9436;SDS011;4757;59.334;18.034;2023-01-20T07:43:46;4.57;;;3.83;;
9436;SDS011;4757;59.334;18.034;2023-01-20T07:46:18;5.23;;;2.80;;
9436;SDS011;4757;59.334;18.034;2023-01-20T07:48:45;10.40;;;3.60;;
9436;SDS011;4757;59.334;18.034;2023-01-20T07:51:13;11.07;;;3.07;;
9436;SDS011;4757;59.334;18.034;2023-01-20T07:53:42;6.10;;;3.20;;
9436;SDS011;4757;59.334;18.034;2023-01-20T07:56:17;8.30;;;3.20;;
9436;SDS011;4757;59.334;18.034;2023-01-20T07:58:48;4.63;;;2.97;;
9436;SDS011;4757;59.334;18.034;2023-01-20T08:01:17;7.83;;;4.27;;
9436;SDS011;4757;59.334;18.034;2023-01-20T08:03:49;5.97;;;3.50;;
9436;SDS011;4757;59.334;18.034;2023-01-20T08:06:18;7.07;;;3.00;;
9436;SDS011;4757;59.334;18.034;2023-01-20T08:08:47;12.97;;;4.33;;
9436;SDS011;4757;59.334;18.034;2023-01-20T08:11:15;10.30;;;3.73;;
9436;SDS011;4757;59.334;18.034;2023-01-20T08:13:44;9.57;;;4.57;;
9436;SDS011;4757;59.334;18.034;2023-01-20T08:16:13;14.63;;;5.10;;
9436;SDS011;4757;59.334;18.034;2023-01-20T08:18:41;8.10;;;4.17;;
9436;SDS011;4757;59.334;18.034;2023-01-20T08:21:21;6.80;;;3.23;;
9436;SDS011;4757;59.334;18.034;2023-01-20T08:23:50;7.03;;;3.17;;
9436;SDS011;4757;59.334;18.034;2023-01-20T08:26:17;6.77;;;3.30;;
9436;SDS011;4757;59.334;18.034;2023-01-20T08:28:45;4.37;;;3.47;;
9436;SDS011;4757;59.334;18.034;2023-01-20T08:31:17;9.10;;;3.57;;
9436;SDS011;4757;59.334;18.034;2023-01-20T08:33:46;4.47;;;3.20;;
9436;SDS011;4757;59.334;18.034;2023-01-20T08:36:14;5.47;;;3.37;;
9436;SDS011;4757;59.334;18.034;2023-01-20T08:38:44;7.67;;;3.30;;
9436;SDS011;4757;59.334;18.034;2023-01-20T08:41:15;7.63;;;3.43;;
9436;SDS011;4757;59.334;18.034;2023-01-20T08:43:44;9.70;;;3.90;;
9436;SDS011;4757;59.334;18.034;2023-01-20T08:46:11;9.57;;;5.60;;
9436;SDS011;4757;59.334;18.034;2023-01-20T08:48:41;5.40;;;3.47;;
9436;SDS011;4757;59.334;18.034;2023-01-20T08:51:17;4.17;;;3.30;;
9436;SDS011;4757;59.334;18.034;2023-01-20T08:53:46;10.63;;;3.63;;
9436;SDS011;4757;59.334;18.034;2023-01-20T08:56:13;5.03;;;3.00;;
9436;SDS011;4757;59.334;18.034;2023-01-20T08:58:42;6.87;;;3.53;;
9436;SDS011;4757;59.334;18.034;2023-01-20T09:01:11;5.43;;;3.13;;
9436;SDS011;4757;59.334;18.034;2023-01-20T09:03:40;6.00;;;3.30;;
9436;SDS011;4757;59.334;18.034;2023-01-20T09:06:24;5.50;;;3.10;;
9436;SDS011;4757;59.334;18.034;2023-01-20T09:08:52;6.63;;;3.77;;
9436;SDS011;4757;59.334;18.034;2023-01-20T09:11:21;26.00;;;11.90;;
9436;SDS011;4757;59.334;18.034;2023-01-20T09:13:50;7.60;;;4.50;;
9436;SDS011;4757;59.334;18.034;2023-01-20T09:16:18;11.27;;;3.77;;
9436;SDS011;4757;59.334;18.034;2023-01-20T09:18:45;8.23;;;3.53;;
9436;SDS011;4757;59.334;18.034;2023-01-20T09:21:15;5.77;;;3.27;;
9436;SDS011;4757;59.334;18.034;2023-01-20T09:23:42;10.10;;;4.10;;
9436;SDS011;4757;59.334;18.034;2023-01-20T09:26:09;5.30;;;3.57;;
9436;SDS011;4757;59.334;18.034;2023-01-20T09:28:38;8.93;;;4.28;;
9436;SDS011;4757;59.334;18.034;2023-01-20T09:31:07;5.13;;;3.90;;
9436;SDS011;4757;59.334;18.034;2023-01-20T09:33:36;11.30;;;6.57;;
9436;SDS011;4757;59.334;18.034;2023-01-20T09:36:05;11.20;;;4.23;;
9436;SDS011;4757;59.334;18.034;2023-01-20T09:38:34;6.47;;;3.57;;
9436;SDS011;4757;59.334;18.034;2023-01-20T09:41:28;4.67;;;3.70;;
9436;SDS011;4757;59.334;18.034;2023-01-20T09:47:03;9.13;;;3.80;;
9436;SDS011;4757;59.334;18.034;2023-01-20T09:55:41;9.17;;;3.87;;
9436;SDS011;4757;59.334;18.034;2023-01-20T10:01:05;22.20;;;4.90;;
9436;SDS011;4757;59.334;18.034;2023-01-20T10:03:42;4.23;;;3.10;;
9436;SDS011;4757;59.334;18.034;2023-01-20T10:06:14;7.17;;;3.90;;
9436;SDS011;4757;59.334;18.034;2023-01-20T10:09:08;8.80;;;6.17;;
9436;SDS011;4757;59.334;18.034;2023-01-20T10:11:40;11.27;;;3.93;;
9436;SDS011;4757;59.334;18.034;2023-01-20T10:19:42;6.73;;;3.60;;
9436;SDS011;4757;59.334;18.034;2023-01-20T10:25:15;6.23;;;4.17;;
9436;SDS011;4757;59.334;18.034;2023-01-20T10:27:52;5.87;;;3.90;;
9436;SDS011;4757;59.334;18.034;2023-01-20T10:30:23;4.93;;;3.30;;
9436;SDS011;4757;59.334;18.034;2023-01-20T10:33:08;6.43;;;3.80;;
9436;SDS011;4757;59.334;18.034;2023-01-20T10:35:41;4.73;;;3.97;;
9436;SDS011;4757;59.334;18.034;2023-01-20T10:38:23;6.53;;;4.67;;
9436;SDS011;4757;59.334;18.034;2023-01-20T10:41:15;7.13;;;3.50;;
9436;SDS011;4757;59.334;18.034;2023-01-20T10:43:52;7.23;;;4.40;;
9436;SDS011;4757;59.334;18.034;2023-01-20T10:49:13;11.03;;;4.53;;
9436;SDS011;4757;59.334;18.034;2023-01-20T10:52:39;7.60;;;4.13;;
9436;SDS011;4757;59.334;18.034;2023-01-20T10:57:48;7.13;;;4.70;;
9436;SDS011;4757;59.334;18.034;2023-01-20T11:00:26;4.73;;;3.83;;
9436;SDS011;4757;59.334;18.034;2023-01-20T11:02:57;6.70;;;4.50;;
9436;SDS011;4757;59.334;18.034;2023-01-20T11:05:30;7.13;;;4.53;;
9436;SDS011;4757;59.334;18.034;2023-01-20T11:08:09;4.67;;;4.20;;
9436;SDS011;4757;59.334;18.034;2023-01-20T11:10:41;5.60;;;4.73;;
9436;SDS011;4757;59.334;18.034;2023-01-20T11:13:09;7.50;;;4.50;;
9436;SDS011;4757;59.334;18.034;2023-01-20T11:15:40;5.83;;;4.37;;
9436;SDS011;4757;59.334;18.034;2023-01-20T11:20:50;7.00;;;4.27;;
9436;SDS011;4757;59.334;18.034;2023-01-20T11:23:22;5.53;;;4.70;;
9436;SDS011;4757;59.334;18.034;2023-01-20T11:25:59;7.80;;;5.73;;
9436;SDS011;4757;59.334;18.034;2023-01-20T11:28:46;8.90;;;4.80;;
9436;SDS011;4757;59.334;18.034;2023-01-20T11:31:16;7.37;;;4.30;;
9436;SDS011;4757;59.334;18.034;2023-01-20T11:33:59;12.97;;;8.13;;
9436;SDS011;4757;59.334;18.034;2023-01-20T11:36:27;10.33;;;4.80;;
9436;SDS011;4757;59.334;18.034;2023-01-20T11:38:55;8.83;;;5.83;;
9436;SDS011;4757;59.334;18.034;2023-01-20T11:41:24;12.47;;;6.27;;
9436;SDS011;4757;59.334;18.034;2023-01-20T11:43:54;4.97;;;3.43;;
9436;SDS011;4757;59.334;18.034;2023-01-20T11:46:32;10.97;;;7.60;;
9436;SDS011;4757;59.334;18.034;2023-01-20T11:49:11;15.03;;;4.30;;
9436;SDS011;4757;59.334;18.034;2023-01-20T11:51:50;7.13;;;4.20;;
9436;SDS011;4757;59.334;18.034;2023-01-20T11:54:26;7.17;;;4.70;;
9436;SDS011;4757;59.334;18.034;2023-01-20T11:56:55;7.53;;;4.17;;
9436;SDS011;4757;59.334;18.034;2023-01-20T11:59:30;4.53;;;3.73;;
9436;SDS011;4757;59.334;18.034;2023-01-20T12:02:14;7.57;;;4.67;;
9436;SDS011;4757;59.334;18.034;2023-01-20T12:07:26;5.60;;;4.37;;
9436;SDS011;4757;59.334;18.034;2023-01-20T12:10:01;4.77;;;4.00;;
9436;SDS011;4757;59.334;18.034;2023-01-20T12:12:44;6.60;;;4.50;;
9436;SDS011;4757;59.334;18.034;2023-01-20T12:15:18;5.83;;;4.57;;
9436;SDS011;4757;59.334;18.034;2023-01-20T12:17:50;5.53;;;4.27;;
9436;SDS011;4757;59.334;18.034;2023-01-20T12:20:22;5.70;;;4.40;;
9436;SDS011;4757;59.334;18.034;2023-01-20T12:26:12;8.27;;;5.17;;
9436;SDS011;4757;59.334;18.034;2023-01-20T12:28:42;6.20;;;4.63;;
9436;SDS011;4757;59.334;18.034;2023-01-20T12:31:21;5.17;;;4.67;;
9436;SDS011;4757;59.334;18.034;2023-01-20T12:34:12;6.27;;;4.63;;
9436;SDS011;4757;59.334;18.034;2023-01-20T12:56:10;8.13;;;4.00;;
9436;SDS011;4757;59.334;18.034;2023-01-20T12:58:57;6.90;;;5.23;;
9436;SDS011;4757;59.334;18.034;2023-01-20T13:04:10;8.03;;;5.13;;
9436;SDS011;4757;59.334;18.034;2023-01-20T13:07:48;8.43;;;5.30;;
9436;SDS011;4757;59.334;18.034;2023-01-20T13:10:17;7.07;;;4.53;;
9436;SDS011;4757;59.334;18.034;2023-01-20T13:13:05;10.20;;;5.83;;
9436;SDS011;4757;59.334;18.034;2023-01-20T13:15:47;13.33;;;5.40;;
9436;SDS011;4757;59.334;18.034;2023-01-20T13:21:12;9.57;;;4.77;;
9436;SDS011;4757;59.334;18.034;2023-01-20T13:23:47;9.27;;;4.83;;
9436;SDS011;4757;59.334;18.034;2023-01-20T13:26:17;5.63;;;4.77;;
9436;SDS011;4757;59.334;18.034;2023-01-20T13:28:51;8.10;;;5.53;;
9436;SDS011;4757;59.334;18.034;2023-01-20T13:32:03;8.60;;;5.40;;
9436;SDS011;4757;59.334;18.034;2023-01-20T13:39:43;6.03;;;3.97;;
9436;SDS011;4757;59.334;18.034;2023-01-20T13:50:32;5.03;;;3.70;;
9436;SDS011;4757;59.334;18.034;2023-01-20T13:53:27;6.17;;;4.27;;
9436;SDS011;4757;59.334;18.034;2023-01-20T13:55:57;4.43;;;3.37;;
9436;SDS011;4757;59.334;18.034;2023-01-20T13:58:35;4.87;;;3.50;;
9436;SDS011;4757;59.334;18.034;2023-01-20T14:01:06;6.73;;;3.50;;
9436;SDS011;4757;59.334;18.034;2023-01-20T14:03:39;5.57;;;4.03;;
9436;SDS011;4757;59.334;18.034;2023-01-20T14:08:47;7.10;;;4.20;;
9436;SDS011;4757;59.334;18.034;2023-01-20T14:11:19;8.33;;;5.70;;
9436;SDS011;4757;59.334;18.034;2023-01-20T14:13:59;7.47;;;3.80;;
9436;SDS011;4757;59.334;18.034;2023-01-20T14:19:03;4.63;;;4.03;;
9436;SDS011;4757;59.334;18.034;2023-01-20T14:21:58;12.30;;;6.43;;
9436;SDS011;4757;59.334;18.034;2023-01-20T14:24:34;4.70;;;4.07;;
9436;SDS011;4757;59.334;18.034;2023-01-20T14:27:06;4.73;;;3.90;;
9436;SDS011;4757;59.334;18.034;2023-01-20T14:29:49;4.53;;;3.63;;
9436;SDS011;4757;59.334;18.034;2023-01-20T14:34:54;5.27;;;4.10;;
9436;SDS011;4757;59.334;18.034;2023-01-20T14:37:30;4.10;;;3.57;;
9436;SDS011;4757;59.334;18.034;2023-01-20T14:40:11;4.57;;;3.50;;
9436;SDS011;4757;59.334;18.034;2023-01-20T14:42:55;4.20;;;3.17;;
9436;SDS011;4757;59.334;18.034;2023-01-20T14:45:22;8.83;;;7.90;;
9436;SDS011;4757;59.334;18.034;2023-01-20T14:47:51;3.63;;;3.13;;
9436;SDS011;4757;59.334;18.034;2023-01-20T14:50:19;4.07;;;3.63;;
9436;SDS011;4757;59.334;18.034;2023-01-20T14:52:48;6.37;;;4.70;;
9436;SDS011;4757;59.334;18.034;2023-01-20T14:55:32;3.97;;;2.73;;
9436;SDS011;4757;59.334;18.034;2023-01-20T14:58:19;3.20;;;2.90;;
9436;SDS011;4757;59.334;18.034;2023-01-20T15:00:47;6.00;;;3.40;;
9436;SDS011;4757;59.334;18.034;2023-01-20T15:03:22;6.23;;;3.67;;
9436;SDS011;4757;59.334;18.034;2023-01-20T15:05:58;7.07;;;3.83;;
9436;SDS011;4757;59.334;18.034;2023-01-20T15:11:10;6.67;;;4.10;;
9436;SDS011;4757;59.334;18.034;2023-01-20T15:13:38;20.70;;;15.23;;
9436;SDS011;4757;59.334;18.034;2023-01-20T15:21:46;5.23;;;3.87;;
9436;SDS011;4757;59.334;18.034;2023-01-20T15:24:28;4.63;;;4.10;;
9436;SDS011;4757;59.334;18.034;2023-01-20T15:26:57;10.33;;;4.17;;
9436;SDS011;4757;59.334;18.034;2023-01-20T15:29:32;8.97;;;4.90;;
9436;SDS011;4757;59.334;18.034;2023-01-20T15:32:02;8.07;;;5.47;;
9436;SDS011;4757;59.334;18.034;2023-01-20T15:34:37;9.00;;;5.53;;
9436;SDS011;4757;59.334;18.034;2023-01-20T15:37:08;7.40;;;5.90;;
9436;SDS011;4757;59.334;18.034;2023-01-20T15:39:44;9.00;;;5.43;;
9436;SDS011;4757;59.334;18.034;2023-01-20T15:42:11;7.33;;;5.90;;
9436;SDS011;4757;59.334;18.034;2023-01-20T15:44:40;8.33;;;5.07;;
9436;SDS011;4757;59.334;18.034;2023-01-20T15:47:26;9.67;;;5.93;;
9436;SDS011;4757;59.334;18.034;2023-01-20T15:49:56;7.80;;;5.67;;
9436;SDS011;4757;59.334;18.034;2023-01-20T15:52:24;9.77;;;5.57;;
9436;SDS011;4757;59.334;18.034;2023-01-20T15:54:51;11.07;;;7.10;;
9436;SDS011;4757;59.334;18.034;2023-01-20T15:57:21;5.83;;;4.73;;
9436;SDS011;4757;59.334;18.034;2023-01-20T15:59:49;8.03;;;4.90;;
9436;SDS011;4757;59.334;18.034;2023-01-20T16:02:17;5.77;;;5.27;;
9436;SDS011;4757;59.334;18.034;2023-01-20T16:04:46;5.10;;;4.50;;
9436;SDS011;4757;59.334;18.034;2023-01-20T16:07:15;7.13;;;5.37;;
9436;SDS011;4757;59.334;18.034;2023-01-20T16:09:44;6.03;;;5.03;;
9436;SDS011;4757;59.334;18.034;2023-01-20T16:12:15;12.23;;;6.37;;
9436;SDS011;4757;59.334;18.034;2023-01-20T16:14:43;15.47;;;7.23;;
9436;SDS011;4757;59.334;18.034;2023-01-20T16:17:18;8.03;;;6.53;;
9436;SDS011;4757;59.334;18.034;2023-01-20T16:19:47;10.27;;;6.00;;
9436;SDS011;4757;59.334;18.034;2023-01-20T16:22:15;9.60;;;5.50;;
9436;SDS011;4757;59.334;18.034;2023-01-20T16:24:42;9.57;;;5.73;;
9436;SDS011;4757;59.334;18.034;2023-01-20T16:27:15;7.10;;;6.20;;
9436;SDS011;4757;59.334;18.034;2023-01-20T16:29:44;10.53;;;6.13;;
9436;SDS011;4757;59.334;18.034;2023-01-20T16:32:12;13.47;;;6.57;;
9436;SDS011;4757;59.334;18.034;2023-01-20T16:34:43;9.87;;;6.70;;
9436;SDS011;4757;59.334;18.034;2023-01-20T16:37:12;12.23;;;6.03;;
9436;SDS011;4757;59.334;18.034;2023-01-20T16:39:39;11.20;;;6.33;;
9436;SDS011;4757;59.334;18.034;2023-01-20T16:42:09;7.87;;;5.97;;
9436;SDS011;4757;59.334;18.034;2023-01-20T16:44:40;10.30;;;7.47;;
9436;SDS011;4757;59.334;18.034;2023-01-20T16:47:07;10.90;;;8.20;;
9436;SDS011;4757;59.334;18.034;2023-01-20T16:49:34;12.80;;;6.60;;
9436;SDS011;4757;59.334;18.034;2023-01-20T16:52:02;9.37;;;7.90;;
9436;SDS011;4757;59.334;18.034;2023-01-20T16:54:29;15.07;;;8.67;;
9436;SDS011;4757;59.334;18.034;2023-01-20T16:56:56;10.80;;;7.47;;
9436;SDS011;4757;59.334;18.034;2023-01-20T16:59:23;8.90;;;7.07;;
9436;SDS011;4757;59.334;18.034;2023-01-20T17:01:51;11.43;;;7.47;;
9436;SDS011;4757;59.334;18.034;2023-01-20T17:04:18;12.03;;;8.00;;
9436;SDS011;4757;59.334;18.034;2023-01-20T17:06:45;9.70;;;7.10;;
9436;SDS011;4757;59.334;18.034;2023-01-20T17:09:16;10.50;;;7.23;;
9436;SDS011;4757;59.334;18.034;2023-01-20T17:11:45;8.70;;;7.27;;
9436;SDS011;4757;59.334;18.034;2023-01-20T17:14:13;11.83;;;7.37;;
9436;SDS011;4757;59.334;18.034;2023-01-20T17:16:41;14.83;;;7.77;;
9436;SDS011;4757;59.334;18.034;2023-01-20T17:19:08;9.57;;;6.80;;
9436;SDS011;4757;59.334;18.034;2023-01-20T17:21:36;10.33;;;6.37;;
9436;SDS011;4757;59.334;18.034;2023-01-20T17:24:04;15.50;;;6.93;;